Time;durP1;ratioP1;P1;durP2;ratioP2;P2;SDS_P1;SDS_P2;PMS_P1;PMS_P2;Temp;Humidity;BMP_temperature;BMP_pressure;BME280_temperature;BME280_humidity;BME280_pressure;Samples;Min_cycle;Max_cycle;Signal;HPM_P1;HPM_P2
2023/07/17 00:03:45;;;;;;;6.65;3.97;;;;;19.50;96545.00;;;;8223805;28;20230;-68
2023/07/17 00:07:51;;;;;;;4.88;4.38;;;;;19.60;96546.00;;;;8232488;28;20230;-70
2023/07/17 00:11:55;;;;;;;7.28;4.00;;;;;19.60;96552.00;;;;8236258;28;20286;-68
2023/07/17 00:15:58;;;;;;;4.65;3.97;;;;;19.60;96547.00;;;;8242486;28;20226;-67
2023/07/17 00:20:03;;;;;;;6.18;4.20;;;;;19.70;96548.00;;;;8234081;28;20807;-67
2023/07/17 00:24:07;;;;;;;5.30;4.10;;;;;19.70;96548.00;;;;8229609;28;20211;-68
2023/07/17 00:28:12;;;;;;;6.78;4.15;;;;;19.80;96551.00;;;;8234330;28;20266;-67
2023/07/17 00:32:15;;;;;;;5.30;4.40;;;;;19.80;96552.00;;;;8230121;28;20286;-68
2023/07/17 00:36:21;;;;;;;5.47;4.85;;;;;19.80;96551.00;;;;8237108;28;20762;-67
2023/07/17 00:40:32;;;;;;;7.20;4.60;;;;;19.80;96543.00;;;;8238157;28;20681;-68
2023/07/17 00:44:36;;;;;;;5.93;4.38;;;;;19.80;96560.00;;;;8226314;28;20573;-68
2023/07/17 00:48:39;;;;;;;5.65;4.78;;;;;19.80;96555.00;;;;8237090;28;20317;-67
2023/07/17 00:52:47;;;;;;;4.40;4.00;;;;;19.90;96539.00;;;;8244728;28;20293;-67
2023/07/17 00:56:52;;;;;;;5.97;4.18;;;;;20.00;96541.00;;;;8243293;28;20202;-68
2023/07/17 01:01:02;;;;;;;4.50;4.15;;;;;20.00;96544.00;;;;8230788;28;20220;-68
2023/07/17 01:05:06;;;;;;;5.97;3.97;;;;;20.00;96544.00;;;;8242076;28;20863;-67
2023/07/17 01:09:16;;;;;;;16.50;4.10;;;;;20.00;96539.00;;;;8236206;28;20267;-68
2023/07/17 01:13:24;;;;;;;6.30;4.72;;;;;20.00;96550.00;;;;8253072;28;20246;-67
2023/07/17 01:17:29;;;;;;;5.15;4.00;;;;;20.00;96546.00;;;;8244631;28;20840;-67
2023/07/17 01:21:45;;;;;;;5.75;4.25;;;;;20.00;96547.00;;;;8243729;28;20202;-68
2023/07/17 01:25:53;;;;;;;5.60;4.10;;;;;20.10;96555.00;;;;8250330;28;20896;-67
2023/07/17 01:30:02;;;;;;;5.20;4.70;;;;;20.20;96560.00;;;;8251475;28;20227;-67
2023/07/17 01:34:08;;;;;;;5.32;4.25;;;;;20.20;96555.00;;;;8252139;28;20238;-67
2023/07/17 01:38:15;;;;;;;4.30;3.90;;;;;20.20;96566.00;;;;8242915;28;20200;-67
2023/07/17 01:42:22;;;;;;;6.78;4.30;;;;;20.10;96567.00;;;;8242261;28;20202;-67
2023/07/17 01:46:29;;;;;;;5.55;3.90;;;;;20.10;96576.00;;;;8248518;28;20227;-67
2023/07/17 01:50:34;;;;;;;11.02;4.78;;;;;20.00;96574.00;;;;8243311;28;20195;-68
2023/07/17 01:54:37;;;;;;;12.65;4.20;;;;;20.00;96564.00;;;;8248348;28;20210;-67
2023/07/17 01:58:42;;;;;;;6.10;3.88;;;;;19.90;96564.00;;;;8257501;28;20290;-68
2023/07/17 02:02:45;;;;;;;4.57;4.18;;;;;19.90;96561.00;;;;8240920;28;20235;-69
2023/07/17 02:06:48;;;;;;;7.90;4.53;;;;;20.00;96554.00;;;;8239923;28;20229;-68
2023/07/17 02:10:53;;;;;;;5.43;4.22;;;;;20.00;96541.00;;;;8242149;28;20207;-67
2023/07/17 02:14:57;;;;;;;4.60;3.70;;;;;19.80;96556.00;;;;8247346;28;20334;-68
2023/07/17 02:19:00;;;;;;;5.13;4.25;;;;;19.90;96553.00;;;;8243123;28;20230;-69
2023/07/17 02:23:03;;;;;;;6.90;3.70;;;;;19.90;96553.00;;;;8255193;28;20631;-68
2023/07/17 02:27:07;;;;;;;10.13;3.92;;;;;20.10;96554.00;;;;8251580;28;20266;-70
2023/07/17 02:31:13;;;;;;;8.57;4.85;;;;;20.10;96544.00;;;;8255919;28;20218;-67
2023/07/17 02:35:17;;;;;;;11.88;4.20;;;;;20.10;96572.00;;;;8255155;28;20215;-67
2023/07/17 02:39:22;;;;;;;8.40;4.57;;;;;20.00;96592.00;;;;8253984;28;20202;-69
2023/07/17 02:43:25;;;;;;;7.78;3.78;;;;;19.90;96605.00;;;;8251407;28;20759;-68
2023/07/17 02:47:31;;;;;;;8.40;4.03;;;;;19.90;96602.00;;;;8235685;28;20273;-69
2023/07/17 02:51:34;;;;;;;7.80;4.00;;;;;19.90;96612.00;;;;8254096;28;20195;-67
2023/07/17 02:55:37;;;;;;;5.45;3.92;;;;;19.90;96623.00;;;;8253980;28;20202;-68
2023/07/17 02:59:44;;;;;;;10.57;4.32;;;;;19.90;96614.00;;;;8253856;28;20207;-67
2023/07/17 03:03:49;;;;;;;7.70;4.47;;;;;20.00;96580.00;;;;8291706;23;20230;-68
2023/07/17 03:07:54;;;;;;;8.13;4.57;;;;;20.00;96591.00;;;;8268608;28;20320;-68
2023/07/17 03:11:57;;;;;;;8.88;4.50;;;;;19.90;96583.00;;;;8266247;28;20220;-68
2023/07/17 03:16:02;;;;;;;9.00;4.60;;;;;19.90;96568.00;;;;8265688;28;20210;-68
2023/07/17 03:20:09;;;;;;;7.05;4.10;;;;;19.90;96570.00;;;;8276123;28;20213;-67
2023/07/17 03:24:12;;;;;;;10.40;4.25;;;;;20.00;96582.00;;;;8267714;28;20257;-69
2023/07/17 03:28:16;;;;;;;6.75;4.55;;;;;20.00;96573.00;;;;8272295;28;20317;-67
2023/07/17 03:32:20;;;;;;;10.38;4.40;;;;;20.00;96568.00;;;;8277683;28;20805;-67
2023/07/17 03:36:25;;;;;;;5.85;4.05;;;;;20.10;96566.00;;;;8273656;28;20233;-67
2023/07/17 03:40:28;;;;;;;7.20;3.97;;;;;20.10;96564.00;;;;8271602;28;20206;-69
2023/07/17 03:44:32;;;;;;;12.32;4.35;;;;;20.00;96551.00;;;;8250354;28;20283;-68
2023/07/17 03:48:35;;;;;;;8.35;4.22;;;;;20.00;96556.00;;;;8270327;28;20833;-67
2023/07/17 03:52:40;;;;;;;8.25;4.43;;;;;19.90;96556.00;;;;8270930;28;20222;-67
2023/07/17 03:56:44;;;;;;;7.80;4.55;;;;;19.90;96583.00;;;;8263459;28;20961;-67
2023/07/17 04:00:49;;;;;;;11.80;3.95;;;;;19.70;96596.00;;;;8256715;28;20301;-67
2023/07/17 04:04:53;;;;;;;11.20;4.47;;;;;19.70;96587.00;;;;8268511;28;20230;-67
2023/07/17 04:08:59;;;;;;;5.25;4.15;;;;;19.80;96594.00;;;;8265120;28;20234;-68
2023/07/17 04:13:06;;;;;;;7.20;3.97;;;;;19.90;96612.00;;;;8237277;28;20215;-69
2023/07/17 04:17:10;;;;;;;10.30;4.60;;;;;20.10;96622.00;;;;8257134;28;20334;-67
2023/07/17 04:21:16;;;;;;;6.78;4.43;;;;;20.20;96617.00;;;;8268166;28;20210;-68
2023/07/17 04:25:22;;;;;;;7.65;4.50;;;;;20.30;96611.00;;;;8268223;28;20268;-67
2023/07/17 04:29:25;;;;;;;4.88;4.03;;;;;20.40;96604.00;;;;8279634;28;20312;-68
2023/07/17 04:33:28;;;;;;;7.78;4.50;;;;;20.50;96602.00;;;;8271621;28;20828;-68
2023/07/17 04:37:34;;;;;;;8.43;4.20;;;;;20.70;96616.00;;;;8241686;28;20346;-69
2023/07/17 04:41:44;;;;;;;4.15;3.83;;;;;20.80;96617.00;;;;8271815;28;20195;-67
2023/07/17 04:45:49;;;;;;;5.88;4.70;;;;;20.70;96624.00;;;;8256505;28;20254;-68
2023/07/17 04:49:53;;;;;;;8.38;4.10;;;;;20.60;96627.00;;;;8261614;28;20249;-66
2023/07/17 04:53:56;;;;;;;13.95;4.18;;;;;20.80;96631.00;;;;8261488;28;20213;-66
2023/07/17 04:58:01;;;;;;;8.73;4.25;;;;;21.10;96642.00;;;;8272542;28;20221;-66
2023/07/17 05:02:05;;;;;;;7.35;3.80;;;;;21.30;96647.00;;;;8218817;28;1635175;-66
2023/07/17 05:06:09;;;;;;;7.07;3.75;;;;;21.30;96667.00;;;;8262548;28;20692;-67
2023/07/17 05:10:14;;;;;;;7.32;4.20;;;;;21.30;96672.00;;;;8272937;28;20227;-68
2023/07/17 05:14:23;;;;;;;7.45;4.13;;;;;21.00;96672.00;;;;8275843;28;20242;-72
2023/07/17 05:18:26;;;;;;;8.02;4.22;;;;;20.50;96656.00;;;;8262527;28;20297;-74
2023/07/17 05:22:32;;;;;;;7.20;4.45;;;;;20.00;96683.00;;;;8259876;28;20205;-74
2023/07/17 05:26:39;;;;;;;10.13;4.25;;;;;19.70;96692.00;;;;8270153;28;20209;-74
2023/07/17 05:30:46;;;;;;;6.97;4.32;;;;;19.40;96690.00;;;;8276889;28;20680;-73
2023/07/17 05:34:53;;;;;;;8.50;4.68;;;;;19.40;96689.00;;;;8268313;28;20289;-71
2023/07/17 05:38:56;;;;;;;10.20;5.07;;;;;19.30;96698.00;;;;8280068;28;20206;-73
2023/07/17 05:42:59;;;;;;;6.07;4.55;;;;;19.20;96695.00;;;;8271292;28;20286;-75
2023/07/17 05:47:07;;;;;;;7.32;4.60;;;;;19.20;96688.00;;;;8270088;28;20215;-76
2023/07/17 05:51:11;;;;;;;9.93;4.25;;;;;19.20;96682.00;;;;8281008;28;20667;-74
2023/07/17 05:55:14;;;;;;;6.05;3.97;;;;;19.60;96686.00;;;;8288410;28;20213;-76
2023/07/17 05:59:17;;;;;;;6.78;4.10;;;;;19.80;96698.00;;;;8282117;28;20297;-73
2023/07/17 06:03:28;;;;;;;7.70;4.88;;;;;20.20;96703.00;;;;8278740;28;20226;-71
2023/07/17 06:07:33;;;;;;;7.95;4.50;;;;;20.60;96705.00;;;;8275125;28;20265;-69
2023/07/17 06:11:38;;;;;;;9.70;4.28;;;;;20.90;96716.00;;;;8277486;28;20325;-68
2023/07/17 06:15:41;;;;;;;8.45;4.90;;;;;21.10;96712.00;;;;8274953;28;20203;-69
2023/07/17 06:19:50;;;;;;;7.53;4.90;;;;;21.40;96707.00;;;;8259887;28;20211;-68
2023/07/17 06:23:56;;;;;;;9.27;4.30;;;;;21.60;96727.00;;;;8278003;28;20203;-68
2023/07/17 06:27:59;;;;;;;6.80;4.40;;;;;21.50;96719.00;;;;8272554;28;20214;-69
2023/07/17 06:32:02;;;;;;;7.88;4.80;;;;;21.40;96726.00;;;;8272996;28;20226;-70
2023/07/17 06:36:08;;;;;;;7.72;4.78;;;;;21.70;96725.00;;;;8272921;28;20290;-70
2023/07/17 06:40:14;;;;;;;5.75;4.15;;;;;21.90;96718.00;;;;8273477;28;20703;-69
2023/07/17 06:44:19;;;;;;;10.80;4.78;;;;;22.60;96718.00;;;;8275009;28;20206;-69
2023/07/17 06:48:23;;;;;;;10.82;4.68;;;;;22.70;96726.00;;;;8267747;28;20317;-68
2023/07/17 06:52:31;;;;;;;5.35;4.20;;;;;22.70;96729.00;;;;8260775;28;20659;-69
2023/07/17 06:56:34;;;;;;;7.68;4.13;;;;;22.90;96752.00;;;;8277341;28;20222;-68
2023/07/17 07:00:38;;;;;;;6.60;4.00;;;;;23.60;96746.00;;;;8270276;28;20294;-70
2023/07/17 07:04:42;;;;;;;9.35;3.78;;;;;23.80;96731.00;;;;8276694;28;20972;-70
2023/07/17 07:08:47;;;;;;;5.70;3.85;;;;;23.80;96742.00;;;;8271344;28;20253;-70
2023/07/17 07:12:54;;;;;;;7.45;3.53;;;;;23.70;96740.00;;;;8257020;28;20261;-70
2023/07/17 07:16:59;;;;;;;8.63;3.85;;;;;23.80;96740.00;;;;8270529;28;20233;-70
2023/07/17 07:21:03;;;;;;;8.65;4.20;;;;;24.20;96743.00;;;;8266338;28;20205;-69
2023/07/17 07:25:11;;;;;;;6.10;3.40;;;;;25.40;96748.00;;;;8266074;28;20656;-70
2023/07/17 07:29:14;;;;;;;5.22;3.38;;;;;26.20;96777.00;;;;8262887;28;20254;-69
2023/07/17 07:33:18;;;;;;;9.02;3.92;;;;;26.40;96773.00;;;;8271227;28;20747;-70
2023/07/17 07:37:28;;;;;;;6.85;3.65;;;;;26.90;96765.00;;;;8271869;28;20908;-70
2023/07/17 07:41:35;;;;;;;5.90;3.15;;;;;27.10;96773.00;;;;8271723;28;20240;-70
2023/07/17 07:45:39;;;;;;;6.15;3.22;;;;;28.10;96772.00;;;;8262623;28;20310;-70
2023/07/17 07:49:42;;;;;;;4.07;3.15;;;;;29.00;96775.00;;;;8274142;28;20259;-69
2023/07/17 07:53:52;;;;;;;4.95;3.28;;;;;29.50;96768.00;;;;8272231;28;20541;-70
2023/07/17 07:57:56;;;;;;;9.52;3.53;;;;;29.80;96766.00;;;;8272252;28;20763;-69
2023/07/17 08:01:59;;;;;;;6.07;3.05;;;;;29.10;96772.00;;;;8266753;28;20328;-69
2023/07/17 08:06:04;;;;;;;5.60;3.15;;;;;28.70;96771.00;;;;8266229;28;20634;-69
2023/07/17 08:10:12;;;;;;;8.98;3.42;;;;;29.50;96778.00;;;;8267057;28;20229;-69
2023/07/17 08:14:17;;;;;;;6.82;3.65;;;;;29.90;96784.00;;;;8265298;28;20301;-68
2023/07/17 08:18:20;;;;;;;8.48;3.30;;;;;29.90;96786.00;;;;8270523;28;20202;-69
2023/07/17 08:22:24;;;;;;;6.40;3.38;;;;;30.00;96780.00;;;;8281908;28;20214;-69
2023/07/17 08:26:30;;;;;;;6.88;3.20;;;;;30.50;96786.00;;;;8275123;28;20245;-69
2023/07/17 08:30:37;;;;;;;9.43;3.75;;;;;31.30;96789.00;;;;8267357;28;20245;-69
2023/07/17 08:34:40;;;;;;;7.43;3.72;;;;;31.60;96782.00;;;;8264314;28;20301;-69
2023/07/17 08:38:44;;;;;;;6.70;3.00;;;;;31.70;96795.00;;;;8263967;28;20207;-69
2023/07/17 08:42:49;;;;;;;4.30;2.80;;;;;31.80;96797.00;;;;8269428;28;20294;-68
2023/07/17 08:46:54;;;;;;;6.20;3.05;;;;;31.80;96791.00;;;;8270262;28;20961;-68
2023/07/17 08:50:59;;;;;;;5.97;3.53;;;;;31.80;96795.00;;;;8264960;28;20268;-68
2023/07/17 08:55:03;;;;;;;3.72;3.17;;;;;31.90;96801.00;;;;8274385;28;20220;-67
2023/07/17 08:59:07;;;;;;;4.18;2.90;;;;;32.10;96805.00;;;;8275836;28;20302;-68
2023/07/17 09:03:14;;;;;;;4.13;2.70;;;;;32.30;96800.00;;;;8275175;28;20230;-68
2023/07/17 09:07:18;;;;;;;5.43;3.20;;;;;32.40;96791.00;;;;8271069;28;20544;-69
2023/07/17 09:11:22;;;;;;;4.68;3.17;;;;;32.80;96794.00;;;;8267788;28;20238;-69
2023/07/17 09:15:26;;;;;;;5.90;3.30;;;;;33.20;96800.00;;;;8267320;28;20198;-69
2023/07/17 09:19:32;;;;;;;3.63;3.08;;;;;33.40;96800.00;;;;8277091;28;20616;-69
2023/07/17 09:23:39;;;;;;;5.63;2.80;;;;;33.60;96793.00;;;;8272578;28;20682;-69
2023/07/17 09:27:46;;;;;;;11.07;3.13;;;;;33.40;96802.00;;;;8268713;28;20202;-68
2023/07/17 09:31:49;;;;;;;4.95;3.22;;;;;33.30;96806.00;;;;8279838;28;20343;-68
2023/07/17 09:35:57;;;;;;;4.32;3.08;;;;;33.40;96806.00;;;;8286511;28;20495;-68
2023/07/17 09:40:01;;;;;;;4.72;2.97;;;;;33.50;96796.00;;;;8286990;28;20838;-68
2023/07/17 09:44:06;;;;;;;5.03;3.40;;;;;33.10;96800.00;;;;8287150;28;20779;-69
2023/07/17 09:48:17;;;;;;;5.03;3.40;;;;;33.30;96803.00;;;;8287506;28;20734;-69
2023/07/17 09:52:22;;;;;;;4.35;2.78;;;;;34.10;96792.00;;;;8276929;28;20758;-69
2023/07/17 09:56:32;;;;;;;5.95;3.10;;;;;34.40;96794.00;;;;8280358;28;20229;-70
2023/07/17 10:00:40;;;;;;;5.65;3.00;;;;;34.10;96789.00;;;;8283806;28;20256;-69
2023/07/17 10:04:54;;;;;;;8.48;3.20;;;;;34.40;96796.00;;;;8282281;28;20256;-69
2023/07/17 10:09:00;;;;;;;5.50;2.90;;;;;35.20;96784.00;;;;8281758;28;20213;-70
2023/07/17 10:13:04;;;;;;;5.50;3.08;;;;;35.50;96793.00;;;;8281697;28;20321;-69
2023/07/17 10:17:24;;;;;;;4.22;2.80;;;;;35.00;96787.00;;;;8278933;28;20203;-70
2023/07/17 10:21:29;;;;;;;4.85;3.20;;;;;34.70;96791.00;;;;8276744;28;20820;-70
2023/07/17 10:25:34;;;;;;;8.30;3.00;;;;;35.10;96787.00;;;;8280632;28;20214;-70
2023/07/17 10:29:42;;;;;;;3.13;2.88;;;;;35.20;96788.00;;;;8281137;28;20263;-70
2023/07/17 10:33:49;;;;;;;4.28;2.80;;;;;35.60;96788.00;;;;8284738;28;20245;-70
2023/07/17 10:38:21;;;;;;;3.78;3.20;;;;;34.90;96790.00;;;;8277901;28;20198;-70
2023/07/17 10:42:28;;;;;;;9.18;3.17;;;;;35.10;96772.00;;;;8269141;28;20739;-70
2023/07/17 10:46:33;;;;;;;5.95;2.85;;;;;34.70;96776.00;;;;8281979;28;20207;-68
2023/07/17 10:50:40;;;;;;;4.53;3.10;;;;;35.60;96764.00;;;;8284238;28;20234;-64
2023/07/17 10:54:43;;;;;;;6.95;2.92;;;;;35.90;96765.00;;;;8273006;28;20277;-69
2023/07/17 10:58:52;;;;;;;4.82;2.83;;;;;35.10;96765.00;;;;8279530;28;20216;-69
2023/07/17 11:02:57;;;;;;;5.00;3.00;;;;;34.50;96761.00;;;;8271445;28;20795;-69
2023/07/17 11:07:11;;;;;;;9.85;2.97;;;;;33.90;96758.00;;;;8269970;28;20202;-68
2023/07/17 11:11:15;;;;;;;5.72;2.70;;;;;34.30;96754.00;;;;8275668;28;20238;-71
2023/07/17 11:15:23;;;;;;;6.47;3.30;;;;;35.50;96758.00;;;;8280516;28;20216;-68
2023/07/17 11:19:28;;;;;;;3.35;3.00;;;;;35.40;96744.00;;;;8272051;28;20353;-68
2023/07/17 11:23:33;;;;;;;12.20;3.25;;;;;35.70;96741.00;;;;8279716;28;20199;-69
2023/07/17 11:27:41;;;;;;;4.43;2.65;;;;;36.00;96729.00;;;;8278523;28;20659;-69
2023/07/17 11:31:46;;;;;;;3.22;2.70;;;;;36.00;96731.00;;;;8276426;28;20262;-70
2023/07/17 11:35:50;;;;;;;5.88;2.80;;;;;35.40;96728.00;;;;8275361;28;20635;-72
2023/07/17 11:39:54;;;;;;;4.50;3.20;;;;;35.40;96723.00;;;;8275928;28;20214;-69
2023/07/17 11:43:58;;;;;;;3.95;3.50;;;;;34.50;96724.00;;;;8281344;28;20209;-70
2023/07/17 11:48:07;;;;;;;7.57;2.95;;;;;33.60;96719.00;;;;8271305;28;20199;-70
2023/07/17 11:52:19;;;;;;;5.47;3.25;;;;;32.90;96722.00;;;;8275788;28;20233;-70
2023/07/17 11:56:35;;;;;;;5.75;3.65;;;;;32.50;96718.00;;;;8270913;28;20198;-69
2023/07/17 12:00:46;;;;;;;6.80;3.05;;;;;32.60;96717.00;;;;8280621;28;20260;-71
2023/07/17 12:04:54;;;;;;;3.53;3.13;;;;;32.40;96719.00;;;;8273620;28;20233;-69
2023/07/17 12:08:57;;;;;;;5.82;3.25;;;;;32.10;96721.00;;;;8279252;28;20264;-70
2023/07/17 12:13:02;;;;;;;4.38;2.92;;;;;32.20;96714.00;;;;8275030;28;20657;-70
2023/07/17 12:17:06;;;;;;;6.38;3.33;;;;;33.20;96705.00;;;;8280920;28;20225;-73
2023/07/17 12:21:11;;;;;;;8.13;3.53;;;;;34.20;96691.00;;;;8277533;28;20256;-70
2023/07/17 12:25:16;;;;;;;4.95;3.67;;;;;34.70;96690.00;;;;8267389;28;20202;-73
2023/07/17 12:29:19;;;;;;;4.95;3.05;;;;;35.00;96683.00;;;;8273555;28;20268;-74
2023/07/17 12:33:25;;;;;;;7.15;3.05;;;;;35.10;96673.00;;;;8279659;28;20746;-69
2023/07/17 12:37:30;;;;;;;6.80;2.83;;;;;35.10;96683.00;;;;8266814;28;20214;-71
2023/07/17 12:41:36;;;;;;;4.60;3.10;;;;;34.10;96679.00;;;;8274376;28;20210;-70
2023/07/17 12:45:40;;;;;;;3.00;2.75;;;;;33.30;96676.00;;;;8263262;28;20206;-68
2023/07/17 12:49:46;;;;;;;3.60;2.83;;;;;32.90;96669.00;;;;8255653;28;20713;-70
2023/07/17 12:53:58;;;;;;;5.95;3.40;;;;;32.40;96662.00;;;;8267750;28;20234;-70
2023/07/17 12:58:04;;;;;;;5.38;3.30;;;;;32.20;96677.00;;;;8262470;28;20191;-68
2023/07/17 13:02:09;;;;;;;6.65;3.42;;;;;31.90;96667.00;;;;8250542;28;20611;-71
2023/07/17 13:06:14;;;;;;;7.30;2.97;;;;;32.00;96665.00;;;;8275318;28;20229;-73
2023/07/17 13:10:19;;;;;;;9.02;2.95;;;;;32.00;96661.00;;;;8255117;28;20214;-74
2023/07/17 13:14:26;;;;;;;5.30;3.33;;;;;32.00;96669.00;;;;8280756;28;20210;-75
2023/07/17 13:18:29;;;;;;;7.38;3.28;;;;;32.20;96663.00;;;;8274579;28;20221;-74
2023/07/17 13:22:32;;;;;;;4.40;3.00;;;;;32.00;96659.00;;;;8269895;28;20213;-74
2023/07/17 13:26:39;;;;;;;6.68;2.85;;;;;32.00;96651.00;;;;8270262;28;20202;-74
2023/07/17 13:30:42;;;;;;;3.90;3.00;;;;;32.10;96656.00;;;;8284612;28;20485;-72
2023/07/17 13:35:01;;;;;;;3.88;2.80;;;;;32.50;96645.00;;;;8277569;28;20203;-72
2023/07/17 13:39:07;;;;;;;4.07;3.55;;;;;33.50;96644.00;;;;8275041;28;20673;-72
2023/07/17 13:43:13;;;;;;;4.47;2.95;;;;;34.60;96654.00;;;;8270107;28;20210;-72
2023/07/17 13:47:16;;;;;;;5.50;3.40;;;;;35.10;96646.00;;;;8279890;28;20206;-72
2023/07/17 13:51:19;;;;;;;3.72;3.00;;;;;35.20;96641.00;;;;8270878;28;20230;-72
2023/07/17 13:55:23;;;;;;;5.53;3.22;;;;;34.20;96645.00;;;;8270588;28;20768;-72
2023/07/17 13:59:27;;;;;;;3.45;2.90;;;;;33.60;96641.00;;;;8267288;28;20998;-74
2023/07/17 14:03:31;;;;;;;6.95;3.10;;;;;33.90;96633.00;;;;8273125;28;20281;-72
2023/07/17 14:07:34;;;;;;;4.82;3.13;;;;;34.40;96625.00;;;;8277258;28;20214;-72
2023/07/17 14:11:40;;;;;;;4.03;3.15;;;;;35.20;96630.00;;;;8278564;28;20226;-72
2023/07/17 14:15:44;;;;;;;7.82;2.63;;;;;36.00;96614.00;;;;8277322;28;20225;-72
2023/07/17 14:19:48;;;;;;;4.13;2.88;;;;;36.50;96603.00;;;;8278171;28;20209;-72
2023/07/17 14:23:56;;;;;;;7.90;3.08;;;;;36.00;96611.00;;;;8273235;28;20206;-72
2023/07/17 14:27:59;;;;;;;6.32;3.28;;;;;36.10;96611.00;;;;8277815;28;20210;-73
2023/07/17 14:32:05;;;;;;;5.18;3.40;;;;;36.30;96621.00;;;;8263304;28;20227;-72
2023/07/17 14:36:08;;;;;;;4.65;3.13;;;;;37.00;96609.00;;;;8269682;28;20206;-73
2023/07/17 14:40:13;;;;;;;3.08;2.67;;;;;37.00;96598.00;;;;8271533;28;20202;-72
2023/07/17 14:44:16;;;;;;;3.92;3.20;;;;;36.60;96593.00;;;;8272630;28;20261;-71
2023/07/17 14:48:21;;;;;;;3.80;3.25;;;;;36.30;96586.00;;;;8273496;28;20217;-74
2023/07/17 14:52:26;;;;;;;5.45;3.20;;;;;36.30;96577.00;;;;8257656;28;20230;-72
2023/07/17 14:56:30;;;;;;;5.93;3.03;;;;;36.20;96570.00;;;;8277645;28;20210;-74
2023/07/17 15:00:33;;;;;;;6.10;3.20;;;;;36.10;96572.00;;;;8275421;28;20202;-73
2023/07/17 15:04:38;;;;;;;9.05;3.45;;;;;35.20;96574.00;;;;8282844;28;20307;-74
2023/07/17 15:08:42;;;;;;;4.95;3.72;;;;;33.90;96585.00;;;;8276319;28;20202;-72
2023/07/17 15:12:48;;;;;;;6.22;3.33;;;;;33.00;96589.00;;;;8279365;28;20226;-72
2023/07/17 15:16:53;;;;;;;5.25;3.15;;;;;32.60;96577.00;;;;8276597;28;20666;-71
2023/07/17 15:20:59;;;;;;;4.47;3.55;;;;;32.30;96584.00;;;;8274473;28;20574;-72
2023/07/17 15:25:02;;;;;;;5.32;3.35;;;;;32.40;96580.00;;;;8274517;28;20770;-71
2023/07/17 15:29:04;;;;;;;6.05;3.78;;;;;32.20;96581.00;;;;8278879;28;20706;-75
2023/07/17 15:33:08;;;;;;;9.75;4.15;;;;;32.70;96587.00;;;;8275149;28;20222;-71
2023/07/17 15:37:16;;;;;;;5.43;3.65;;;;;33.70;96574.00;;;;8263961;28;20233;-72
2023/07/17 15:41:22;;;;;;;5.10;3.55;;;;;33.80;96588.00;;;;8285760;28;20264;-72
2023/07/17 15:45:28;;;;;;;6.88;3.72;;;;;33.30;96591.00;;;;8284604;28;20288;-72
2023/07/17 15:49:31;;;;;;;6.15;3.55;;;;;32.40;96581.00;;;;8273132;28;20206;-71
2023/07/17 15:53:35;;;;;;;6.97;3.45;;;;;31.90;96576.00;;;;8282746;28;20278;-71
2023/07/17 15:57:39;;;;;;;6.55;3.17;;;;;31.50;96568.00;;;;8276729;28;20203;-71
2023/07/17 16:01:42;;;;;;;9.05;3.15;;;;;31.60;96570.00;;;;8263989;28;20683;-72
2023/07/17 16:05:49;;;;;;;7.57;3.90;;;;;31.50;96560.00;;;;8271865;28;20210;-71
2023/07/17 16:10:01;;;;;;;5.85;3.55;;;;;31.30;96570.00;;;;8269430;28;20234;-69
2023/07/17 16:14:06;;;;;;;6.57;3.80;;;;;31.30;96566.00;;;;8280674;28;20309;-70
2023/07/17 16:18:09;;;;;;;4.53;3.33;;;;;32.00;96565.00;;;;8274905;28;20206;-71
2023/07/17 16:22:13;;;;;;;6.85;3.60;;;;;32.60;96560.00;;;;8276451;28;20267;-72
2023/07/17 16:26:19;;;;;;;5.43;3.40;;;;;33.10;96564.00;;;;8276925;28;20296;-71
2023/07/17 16:30:23;;;;;;;7.88;3.80;;;;;33.30;96563.00;;;;8281312;28;20666;-70
2023/07/17 16:34:26;;;;;;;4.50;3.50;;;;;32.80;96572.00;;;;8278356;28;20320;-70
2023/07/17 16:38:36;;;;;;;3.67;3.38;;;;;32.00;96571.00;;;;8275845;28;20201;-71
2023/07/17 16:42:43;;;;;;;6.55;3.50;;;;;31.20;96577.00;;;;8279766;28;20285;-70
2023/07/17 16:46:47;;;;;;;8.68;3.75;;;;;30.70;96575.00;;;;8280960;28;20210;-71
2023/07/17 16:50:54;;;;;;;5.72;3.60;;;;;30.60;96570.00;;;;8255322;28;20241;-70
2023/07/17 16:54:59;;;;;;;6.00;3.67;;;;;31.10;96572.00;;;;8277215;28;20956;-73
2023/07/17 16:59:04;;;;;;;7.45;3.70;;;;;31.70;96576.00;;;;8266252;28;20742;-71
2023/07/17 17:03:07;;;;;;;5.20;3.70;;;;;32.30;96575.00;;;;8265250;28;20260;-72
2023/07/17 17:07:12;;;;;;;5.97;3.28;;;;;32.20;96584.00;;;;8272426;28;20218;-70
2023/07/17 17:11:18;;;;;;;3.88;3.47;;;;;32.50;96586.00;;;;8274649;28;20207;-70
2023/07/17 17:15:29;;;;;;;4.88;3.42;;;;;32.60;96583.00;;;;8251043;28;20258;-70
2023/07/17 17:19:33;;;;;;;7.20;3.63;;;;;32.80;96597.00;;;;8274445;28;20268;-68
2023/07/17 17:23:36;;;;;;;5.00;4.00;;;;;33.30;96589.00;;;;8277863;28;20233;-69
2023/07/17 17:27:39;;;;;;;6.18;3.83;;;;;33.60;96593.00;;;;8270604;28;20202;-70
2023/07/17 17:31:46;;;;;;;8.13;3.63;;;;;33.60;96604.00;;;;8270501;28;20249;-71
2023/07/17 17:35:55;;;;;;;7.38;3.97;;;;;33.60;96601.00;;;;8277581;28;20351;-70
2023/07/17 17:39:58;;;;;;;9.75;3.83;;;;;33.60;96606.00;;;;8276787;28;20644;-70
2023/07/17 17:44:01;;;;;;;6.60;4.18;;;;;33.90;96606.00;;;;8281894;28;20206;-70
2023/07/17 17:48:10;;;;;;;5.85;3.55;;;;;33.50;96609.00;;;;8282174;28;20970;-69
2023/07/17 17:52:19;;;;;;;8.57;4.05;;;;;32.60;96613.00;;;;8281028;28;20210;-69
2023/07/17 17:56:22;;;;;;;8.40;4.28;;;;;32.10;96613.00;;;;8268114;28;20206;-70
2023/07/17 18:00:26;;;;;;;7.53;3.72;;;;;31.80;96623.00;;;;8272646;28;20237;-70
2023/07/17 18:04:31;;;;;;;7.80;4.00;;;;;31.20;96629.00;;;;8283396;28;20236;-69
2023/07/17 18:08:34;;;;;;;7.25;4.40;;;;;30.50;96621.00;;;;8259167;28;20210;-70
2023/07/17 18:12:37;;;;;;;7.07;4.38;;;;;29.90;96634.00;;;;8271248;28;20683;-68
2023/07/17 18:16:42;;;;;;;7.15;4.28;;;;;29.30;96638.00;;;;8273361;28;20205;-69
2023/07/17 18:20:47;;;;;;;6.05;4.68;;;;;28.90;96640.00;;;;8274145;28;20202;-70
2023/07/17 18:24:50;;;;;;;8.18;4.57;;;;;28.50;96641.00;;;;8279852;28;20214;-70
2023/07/17 18:28:53;;;;;;;8.73;4.97;;;;;28.10;96645.00;;;;8281569;28;20656;-70
2023/07/17 18:33:01;;;;;;;7.25;4.65;;;;;27.80;96643.00;;;;8275915;28;20329;-70
2023/07/17 18:37:13;;;;;;;7.35;4.43;;;;;27.60;96641.00;;;;8276515;28;20206;-70
2023/07/17 18:41:22;;;;;;;6.45;4.70;;;;;27.40;96653.00;;;;8276673;28;20202;-68
2023/07/17 18:45:31;;;;;;;9.38;4.45;;;;;27.20;96650.00;;;;8279562;28;20217;-74
2023/07/17 18:49:36;;;;;;;7.43;4.65;;;;;26.90;96654.00;;;;8283995;28;20294;-69
2023/07/17 18:53:44;;;;;;;15.80;4.82;;;;;26.70;96669.00;;;;8277180;28;20629;-70
2023/07/17 18:57:47;;;;;;;17.50;6.13;;;;;26.50;96671.00;;;;8276130;28;20268;-71
2023/07/17 19:01:54;;;;;;;12.27;4.88;;;;;26.30;96682.00;;;;8280343;28;20583;-71
2023/07/17 19:05:58;;;;;;;9.75;4.85;;;;;26.10;96690.00;;;;8263923;28;20206;-70
2023/07/17 19:10:06;;;;;;;17.83;5.43;;;;;25.80;96693.00;;;;8277342;28;20209;-72
2023/07/17 19:14:13;;;;;;;15.77;5.30;;;;;25.60;96688.00;;;;8273681;28;20261;-70
2023/07/17 19:18:20;;;;;;;11.70;4.55;;;;;25.30;96701.00;;;;8271837;28;20217;-69
2023/07/17 19:22:26;;;;;;;12.98;4.90;;;;;25.00;96707.00;;;;8260666;28;20214;-68
2023/07/17 19:26:31;;;;;;;17.40;5.00;;;;;24.80;96712.00;;;;8254434;28;20466;-71
2023/07/17 19:30:35;;;;;;;11.30;4.47;;;;;24.60;96723.00;;;;8271356;28;20261;-70
2023/07/17 19:34:46;;;;;;;7.43;4.80;;;;;24.30;96729.00;;;;8270656;28;20672;-69
2023/07/17 19:38:51;;;;;;;13.82;5.30;;;;;24.10;96733.00;;;;8268938;28;20245;-72
2023/07/17 19:42:59;;;;;;;13.75;5.35;;;;;23.80;96735.00;;;;8266992;28;20722;-73
2023/07/17 19:47:02;;;;;;;11.07;5.43;;;;;23.60;96749.00;;;;8273847;28;20198;-71
2023/07/17 19:51:06;;;;;;;14.55;5.57;;;;;23.40;96745.00;;;;8272103;28;20206;-70
2023/07/17 19:55:09;;;;;;;9.77;4.95;;;;;23.30;96755.00;;;;8271413;28;20234;-69
2023/07/17 19:59:14;;;;;;;12.73;5.22;;;;;23.20;96753.00;;;;8267579;28;20198;-68
2023/07/17 20:03:18;;;;;;;12.13;5.65;;;;;23.00;96763.00;;;;8267345;28;20254;-69
2023/07/17 20:07:23;;;;;;;12.30;5.43;;;;;22.80;96760.00;;;;8255115;28;20211;-73
2023/07/17 20:11:26;;;;;;;22.92;5.97;;;;;22.60;96769.00;;;;8280941;28;20225;-63
2023/07/17 20:15:32;;;;;;;76.00;11.82;;;;;22.30;96773.00;;;;8272607;28;20619;-64
2023/07/17 20:19:40;;;;;;;83.78;10.80;;;;;22.00;96773.00;;;;8266377;28;20691;-64
2023/07/17 20:23:43;;;;;;;24.17;7.53;;;;;21.70;96778.00;;;;8269596;28;20229;-63
2023/07/17 20:27:46;;;;;;;95.78;11.80;;;;;21.50;96778.00;;;;8257023;28;20306;-64